Terminal Aerodrome Forecast
Issued by NWS

Home | Current Version | Previous Version | Text Only | Print | Product List | Glossary On
Versions: 1 2 3 4 5 6 7 8 9 10 11 12 13 14 15 16 17 18
000
FTUS43 KDDC 211124
TAFGCK
TAF
KGCK 211124Z 2112/2212 36010KT 3/4SM BR OVC003
     FM220000 26015G25KT 2SM -SN BLSN OVC003
     FM220200 28020G30KT 2SM -SN BLSN OVC008
     FM220600 34020G30KT 2SM BLSN OVC010
     FM221000 33030G40KT 5SM BLSN BKN035=

USA.gov is the U.S. government's official web portal to all federal, state and local government web resources and services.